createdAt,value
2017-06-08T00:00:42.813Z,66.92
2017-06-08T00:01:41.232Z,66.82
2017-06-08T00:02:42.725Z,67.03
2017-06-08T00:03:44.227Z,67.01
2017-06-08T00:04:43.842Z,67.05
2017-06-08T00:05:41.544Z,67.11
2017-06-08T00:11:33.704Z,67.30
2017-06-08T00:12:36.185Z,67.27
2017-06-08T00:13:39.976Z,67.35
2017-06-08T00:14:37.663Z,67.37
2017-06-08T00:15:47.780Z,67.43
2017-06-08T00:16:56.441Z,67.44
2017-06-08T00:18:01.130Z,67.43
2017-06-08T00:19:09.046Z,67.37
2017-06-08T00:20:16.518Z,67.37
2017-06-08T00:22:24.327Z,67.38
2017-06-08T00:23:31.946Z,67.41
2017-06-08T00:26:52.203Z,67.50
2017-06-08T00:28:02.347Z,67.46
2017-06-08T00:29:20.505Z,67.42
2017-06-08T00:30:26.882Z,67.44
2017-06-08T00:31:31.089Z,67.37
2017-06-08T00:32:43.594Z,67.34
2017-06-08T00:33:49.821Z,67.40
2017-06-08T00:34:53.417Z,67.41
2017-06-08T00:35:54.407Z,67.43
2017-06-08T00:50:23.036Z,67.66
2017-06-08T04:51:15.054Z,71.39
2017-06-08T05:08:31.327Z,70.07
2017-06-08T05:09:38.187Z,69.94
2017-06-08T05:10:35.592Z,69.86
2017-06-08T05:11:33.527Z,69.81
2017-06-08T05:12:29.927Z,69.79
2017-06-08T05:13:28.361Z,69.72
2017-06-08T05:14:29.984Z,69.71
2017-06-08T05:15:26.876Z,69.65
2017-06-08T05:16:23.552Z,69.51
2017-06-08T05:17:20.756Z,69.44
2017-06-08T05:18:17.659Z,69.39
2017-06-08T05:19:14.239Z,69.21
2017-06-08T05:20:10.496Z,69.06
2017-06-08T05:21:06.787Z,68.97
2017-06-08T05:22:04.196Z,68.93
2017-06-08T05:23:01.559Z,68.85
2017-06-08T05:23:57.887Z,68.83
2017-06-08T05:24:54.259Z,68.84
2017-06-08T05:25:51.916Z,68.83
2017-06-08T05:26:49.157Z,68.63
2017-06-08T05:27:45.843Z,68.55
2017-06-08T05:28:42.183Z,68.66
2017-06-08T05:29:38.485Z,68.67
2017-06-08T05:30:35.080Z,68.65
2017-06-08T05:31:31.758Z,68.68
2017-06-08T05:32:28.076Z,68.64
2017-06-08T05:33:24.695Z,68.57
2017-06-08T05:34:20.950Z,68.54
2017-06-08T05:35:17.270Z,68.43
2017-06-08T05:36:13.899Z,68.38
2017-06-08T05:37:10.318Z,68.27
2017-06-08T05:38:06.603Z,68.22
2017-06-08T05:39:02.900Z,68.25
2017-06-08T05:39:59.435Z,68.15
2017-06-08T05:40:55.712Z,68.04
2017-06-08T05:41:52.196Z,67.96
2017-06-08T05:42:48.679Z,67.98
2017-06-08T05:43:44.991Z,68.08
2017-06-08T05:44:41.307Z,68.14
2017-06-08T05:45:39.604Z,68.16
2017-06-08T05:46:35.916Z,68.19
2017-06-08T05:47:32.223Z,68.14
2017-06-08T05:48:28.496Z,68.14
2017-06-08T05:49:29.040Z,68.05
2017-06-08T05:50:25.311Z,68.04
2017-06-08T05:51:21.587Z,68.03
2017-06-08T05:52:17.883Z,68.01
2017-06-08T05:53:14.147Z,68.09
2017-06-08T05:54:10.426Z,68.10
2017-06-08T05:55:06.683Z,68.06
2017-06-08T05:56:02.943Z,68.10
2017-06-08T05:57:00.154Z,68.12
2017-06-08T05:57:56.421Z,68.07
2017-06-08T05:58:52.681Z,68.08
2017-06-08T05:59:48.925Z,68.07
2017-06-08T06:00:45.191Z,68.07
2017-06-08T06:01:41.459Z,67.88
2017-06-08T06:02:37.735Z,67.86
2017-06-08T06:03:33.995Z,67.86
2017-06-08T06:04:30.232Z,67.82
2017-06-08T06:05:26.478Z,67.75
2017-06-08T06:06:22.731Z,67.71
2017-06-08T06:07:19.026Z,67.67
2017-06-08T06:08:15.288Z,67.68
2017-06-08T06:09:11.551Z,67.57
2017-06-08T06:10:07.803Z,67.45
2017-06-08T06:11:04.143Z,67.36
2017-06-08T06:12:00.389Z,67.36
2017-06-08T06:12:56.650Z,67.37
2017-06-08T06:13:52.892Z,67.44
2017-06-08T06:14:49.131Z,67.53
2017-06-08T06:15:45.380Z,67.36
2017-06-08T06:16:41.627Z,67.17
2017-06-08T06:17:37.875Z,67.14
2017-06-08T06:18:34.139Z,67.15
2017-06-08T06:19:30.378Z,67.15
2017-06-08T06:20:26.622Z,67.22
2017-06-08T06:21:22.859Z,67.29
2017-06-08T06:22:19.107Z,67.26
2017-06-08T06:23:15.395Z,67.18
2017-06-08T06:24:11.645Z,67.08
2017-06-08T06:25:07.935Z,66.99
2017-06-08T06:26:04.175Z,66.95
2017-06-08T06:27:00.404Z,66.92
2017-06-08T06:27:56.642Z,66.94
2017-06-08T06:28:52.894Z,66.93
2017-06-08T06:29:49.126Z,66.83
2017-06-08T06:30:45.367Z,66.80
2017-06-08T06:31:41.596Z,66.74
2017-06-08T06:32:37.837Z,66.74
2017-06-08T06:33:34.075Z,66.75
2017-06-08T06:34:30.347Z,66.73
2017-06-08T06:35:26.615Z,66.70
2017-06-08T06:36:22.853Z,66.77
2017-06-08T06:37:19.108Z,66.86
2017-06-08T06:38:15.343Z,66.75
2017-06-08T06:39:11.577Z,66.66
2017-06-08T06:40:07.828Z,66.64
2017-06-08T06:41:04.059Z,66.70
2017-06-08T06:42:00.291Z,66.59
2017-06-08T06:42:56.518Z,66.42
2017-06-08T06:43:52.762Z,66.24
2017-06-08T06:44:49.010Z,66.13
2017-06-08T06:45:45.240Z,66.04
2017-06-08T06:46:41.483Z,65.96
2017-06-08T06:47:37.711Z,65.92
2017-06-08T06:48:33.950Z,66.01
2017-06-08T06:49:30.183Z,66.15
2017-06-08T06:50:27.214Z,66.20
2017-06-08T06:51:23.463Z,66.21
2017-06-08T06:52:19.694Z,66.24
2017-06-08T06:53:15.923Z,66.28
2017-06-08T06:54:12.151Z,66.24
2017-06-08T06:55:08.407Z,66.19
2017-06-08T06:56:04.647Z,66.08
2017-06-08T06:57:00.875Z,65.97
2017-06-08T06:57:57.115Z,65.78
2017-06-08T06:58:53.358Z,65.64
2017-06-08T06:59:49.598Z,65.71
2017-06-08T07:00:45.859Z,65.71
2017-06-08T07:01:42.108Z,65.37
2017-06-08T07:02:38.362Z,65.20
2017-06-08T07:03:34.627Z,65.09
2017-06-08T07:04:30.870Z,65.04
2017-06-08T07:05:27.121Z,64.84
2017-06-08T07:06:23.402Z,64.73
2017-06-08T07:07:19.645Z,64.54
2017-06-08T07:08:15.875Z,64.38
2017-06-08T07:09:12.119Z,64.23
2017-06-08T07:10:08.367Z,64.10
2017-06-08T07:11:04.600Z,63.93
2017-06-08T07:12:00.898Z,63.71
2017-06-08T07:12:57.160Z,63.89
2017-06-08T07:13:53.402Z,63.94
2017-06-08T07:14:49.636Z,64.06
2017-06-08T07:15:45.887Z,64.19
2017-06-08T07:16:42.135Z,64.17
2017-06-08T07:17:38.431Z,64.17
2017-06-08T07:18:34.654Z,64.05
2017-06-08T07:19:30.898Z,64.07
2017-06-08T07:20:27.139Z,64.08
2017-06-08T07:21:23.379Z,63.88
2017-06-08T07:22:19.642Z,63.94
2017-06-08T07:23:15.874Z,63.75
2017-06-08T07:24:12.110Z,63.72
2017-06-08T07:25:08.359Z,63.69
2017-06-08T07:26:04.603Z,63.68
2017-06-08T07:27:00.850Z,63.76
2017-06-08T07:27:58.010Z,63.88
2017-06-08T07:28:54.254Z,63.78
2017-06-08T07:29:50.508Z,63.59
2017-06-08T07:30:46.746Z,63.43
2017-06-08T07:31:43.037Z,63.13
2017-06-08T07:32:39.243Z,62.78
2017-06-08T07:33:35.523Z,62.68
2017-06-08T07:34:31.763Z,62.76
2017-06-08T07:35:28.005Z,62.82
2017-06-08T07:36:24.243Z,62.83
2017-06-08T07:37:20.488Z,62.74
2017-06-08T07:38:16.743Z,62.70
2017-06-08T07:39:13.007Z,62.60
2017-06-08T07:40:09.259Z,62.52
2017-06-08T07:41:05.518Z,62.58
2017-06-08T07:42:01.755Z,62.33
2017-06-08T07:42:58.003Z,62.27
2017-06-08T07:43:54.271Z,62.25
2017-06-08T07:44:50.519Z,62.30
2017-06-08T07:45:46.767Z,62.37
2017-06-08T07:46:43.011Z,62.22
2017-06-08T07:47:39.247Z,62.14
2017-06-08T07:48:35.499Z,62.15
2017-06-08T07:49:31.763Z,62.03
2017-06-08T07:50:27.999Z,61.95
2017-06-08T07:51:24.246Z,61.89
2017-06-08T07:52:20.491Z,61.84
2017-06-08T07:53:16.731Z,61.63
2017-06-08T07:54:12.976Z,61.53
2017-06-08T07:55:09.240Z,61.43
2017-06-08T07:56:05.482Z,61.39
2017-06-08T07:57:01.727Z,61.29
2017-06-08T07:57:57.975Z,61.14
2017-06-08T07:58:54.218Z,61.16
2017-06-08T07:59:50.459Z,61.04
2017-06-08T08:00:46.740Z,61.14
2017-06-08T08:01:42.986Z,61.17
2017-06-08T08:02:39.218Z,61.24
2017-06-08T08:03:35.530Z,61.23
2017-06-08T08:04:31.775Z,61.11
2017-06-08T08:05:28.011Z,60.99
2017-06-08T08:06:24.271Z,61.07
2017-06-08T08:07:20.511Z,61.05
2017-06-08T08:08:16.748Z,60.90
2017-06-08T08:09:12.994Z,60.61
2017-06-08T08:10:09.247Z,60.66
2017-06-08T08:11:05.487Z,60.63
2017-06-08T08:12:01.737Z,60.60
2017-06-08T08:12:57.986Z,60.51
2017-06-08T08:13:54.214Z,60.57
2017-06-08T08:14:50.458Z,60.53
2017-06-08T08:15:46.711Z,60.35
2017-06-08T08:16:42.994Z,59.84
2017-06-08T08:17:39.234Z,59.69
2017-06-08T08:18:35.480Z,59.53
2017-06-08T08:19:31.719Z,59.45
2017-06-08T08:20:27.966Z,59.22
2017-06-08T08:21:24.207Z,59.21
2017-06-08T08:22:20.471Z,59.20
2017-06-08T08:23:16.715Z,59.10
2017-06-08T08:24:12.960Z,59.06
2017-06-08T08:25:09.198Z,58.83
2017-06-08T08:26:05.431Z,58.86
2017-06-08T08:27:01.691Z,58.95
2017-06-08T08:27:57.955Z,59.11
2017-06-08T08:28:54.202Z,58.87
2017-06-08T08:29:50.446Z,58.71
2017-06-08T08:30:46.689Z,58.70
2017-06-08T08:31:42.931Z,58.68
2017-06-08T08:32:39.195Z,58.69
2017-06-08T08:33:35.452Z,58.61
2017-06-08T08:34:31.682Z,58.42
2017-06-08T08:35:27.939Z,58.29
2017-06-08T08:36:24.179Z,58.18
2017-06-08T08:37:20.425Z,57.95
2017-06-08T08:38:16.986Z,57.78
2017-06-08T08:39:13.223Z,57.59
2017-06-08T08:40:09.456Z,57.55
2017-06-08T08:41:05.751Z,57.64
2017-06-08T08:42:01.999Z,57.77
2017-06-08T08:42:58.238Z,57.83
2017-06-08T08:43:54.530Z,57.96
2017-06-08T08:44:50.774Z,58.07
2017-06-08T08:45:47.011Z,58.22
2017-06-08T08:46:43.254Z,58.37
2017-06-08T08:47:39.488Z,58.34
2017-06-08T08:48:35.726Z,58.28
2017-06-08T08:49:31.984Z,58.25
2017-06-08T08:50:28.219Z,58.26
2017-06-08T08:51:24.454Z,58.30
2017-06-08T08:52:20.699Z,58.33
2017-06-08T08:53:16.943Z,58.19
2017-06-08T08:54:13.187Z,57.94
2017-06-08T08:55:09.454Z,57.69
2017-06-08T08:56:05.695Z,57.61
2017-06-08T08:57:01.938Z,57.44
2017-06-08T08:57:58.187Z,57.33
2017-06-08T08:58:54.430Z,57.37
2017-06-08T08:59:50.699Z,57.54
2017-06-08T09:00:46.938Z,57.68
2017-06-08T09:01:43.186Z,57.63
2017-06-08T09:02:39.422Z,57.38
2017-06-08T09:03:35.671Z,57.52
2017-06-08T09:04:31.915Z,57.50
2017-06-08T09:05:28.170Z,57.42
2017-06-08T09:06:24.410Z,57.58
2017-06-08T09:07:20.653Z,57.81
2017-06-08T09:08:16.887Z,57.77
2017-06-08T09:09:13.123Z,57.51
2017-06-08T09:10:09.375Z,57.19
2017-06-08T09:11:05.627Z,56.88
2017-06-08T09:12:01.883Z,56.71
2017-06-08T09:12:58.126Z,56.31
2017-06-08T09:13:54.360Z,56.29
2017-06-08T09:14:50.595Z,55.77
2017-06-08T09:15:46.876Z,55.49
2017-06-08T09:16:43.118Z,55.31
2017-06-08T09:17:39.379Z,55.15
2017-06-08T09:18:35.618Z,54.84
2017-06-08T09:19:31.855Z,54.96
2017-06-08T09:20:28.091Z,54.90
2017-06-08T09:21:24.346Z,54.68
2017-06-08T09:22:20.586Z,54.22
2017-06-08T09:23:16.823Z,54.03
2017-06-08T09:24:13.095Z,53.88
2017-06-08T09:25:09.342Z,53.92
2017-06-08T09:26:05.586Z,53.39
2017-06-08T09:27:01.841Z,53.48
2017-06-08T09:27:58.099Z,53.34
2017-06-08T09:28:54.366Z,52.19
2017-06-08T09:29:50.639Z,52.71
2017-06-08T09:30:46.889Z,52.81
2017-06-08T09:31:43.131Z,53.18
2017-06-08T09:32:39.393Z,53.41
2017-06-08T09:33:35.648Z,53.40
2017-06-08T09:34:31.887Z,53.03
2017-06-08T09:35:28.128Z,52.73
2017-06-08T09:36:24.457Z,52.53
2017-06-08T09:37:20.783Z,52.66
2017-06-08T09:38:17.031Z,52.42
2017-06-08T09:39:13.285Z,52.51
2017-06-08T09:40:09.518Z,52.64
2017-06-08T09:41:05.786Z,52.56
2017-06-08T09:42:02.024Z,51.99
2017-06-08T09:42:58.328Z,51.72
2017-06-08T09:43:54.583Z,51.69
2017-06-08T09:44:51.026Z,51.10
2017-06-08T09:45:47.296Z,50.44
2017-06-08T09:46:43.550Z,49.97
2017-06-08T09:47:39.795Z,49.99
2017-06-08T09:48:36.051Z,49.80
2017-06-08T09:49:32.311Z,49.78
2017-06-08T09:50:28.550Z,48.88
2017-06-08T09:51:24.789Z,49.02
2017-06-08T09:52:21.038Z,48.67
2017-06-08T09:53:17.302Z,48.91
2017-06-08T09:54:13.563Z,49.02
2017-06-08T09:55:09.808Z,49.01
2017-06-08T09:56:06.060Z,48.60
2017-06-08T09:57:02.295Z,48.12
2017-06-08T09:57:58.535Z,47.57
2017-06-08T09:58:54.815Z,47.41
2017-06-08T09:59:51.056Z,47.73
2017-06-08T10:00:47.298Z,47.80
2017-06-08T10:01:43.538Z,47.98
2017-06-08T10:02:39.783Z,47.92
2017-06-08T10:03:36.027Z,47.88
2017-06-08T10:04:32.290Z,47.55
2017-06-08T10:05:28.542Z,47.27
2017-06-08T10:06:24.812Z,47.16
2017-06-08T10:07:21.060Z,47.18
2017-06-08T10:08:17.300Z,47.08
2017-06-08T10:09:13.584Z,47.01
2017-06-08T10:10:09.851Z,47.02
2017-06-08T10:11:06.103Z,47.01
2017-06-08T10:12:02.356Z,47.21
2017-06-08T10:12:58.603Z,47.19
2017-06-08T10:13:54.860Z,47.11
2017-06-08T10:14:51.155Z,46.80
2017-06-08T10:15:47.403Z,46.74
2017-06-08T10:16:43.667Z,46.62
2017-06-08T10:17:39.914Z,45.94
2017-06-08T10:18:36.160Z,45.59
2017-06-08T10:19:32.411Z,45.82
2017-06-08T10:20:28.691Z,45.18
2017-06-08T10:21:24.935Z,45.51
2017-06-08T10:22:21.183Z,45.72
2017-06-08T10:23:17.427Z,45.40
2017-06-08T10:24:13.667Z,45.14
2017-06-08T10:25:09.930Z,44.83
2017-06-08T10:26:06.191Z,44.39
2017-06-08T10:27:02.435Z,44.27
2017-06-08T10:27:58.668Z,44.49
2017-06-08T10:28:54.922Z,45.04
2017-06-08T10:29:51.175Z,45.19
2017-06-08T10:30:47.431Z,45.39
2017-06-08T10:31:43.731Z,45.54
2017-06-08T10:32:39.986Z,45.54
2017-06-08T10:33:36.232Z,45.59
2017-06-08T10:34:32.478Z,45.96
2017-06-08T10:35:28.719Z,45.88
2017-06-08T10:36:24.975Z,45.48
2017-06-08T10:37:21.234Z,45.35
2017-06-08T10:38:17.478Z,44.95
2017-06-08T10:39:13.715Z,44.57
2017-06-08T10:40:09.968Z,44.92
2017-06-08T10:41:06.208Z,44.86
2017-06-08T10:42:02.528Z,44.83
2017-06-08T10:42:58.767Z,44.97
2017-06-08T10:43:55.012Z,45.07
2017-06-08T10:44:51.271Z,45.16
2017-06-08T10:45:47.511Z,45.17
2017-06-08T10:46:43.761Z,45.04
2017-06-08T10:47:40.035Z,44.88
2017-06-08T10:48:36.271Z,44.52
2017-06-08T10:49:32.519Z,44.67
2017-06-08T10:50:28.763Z,44.53
2017-06-08T10:51:25.018Z,44.52
2017-06-08T10:52:21.266Z,44.52
2017-06-08T10:53:17.529Z,44.66
2017-06-08T10:54:13.782Z,44.87
2017-06-08T10:55:10.029Z,44.53
2017-06-08T10:56:06.275Z,44.46
2017-06-08T10:57:02.511Z,44.24
2017-06-08T10:57:58.794Z,44.48
2017-06-08T10:58:55.038Z,44.43
2017-06-08T10:59:51.292Z,44.44
2017-06-08T11:00:47.535Z,44.37
2017-06-08T11:01:43.778Z,44.40
2017-06-08T11:02:40.019Z,44.28
2017-06-08T11:03:36.290Z,44.53
2017-06-08T11:04:32.534Z,44.28
2017-06-08T11:05:28.774Z,44.09
2017-06-08T11:06:25.027Z,44.65
2017-06-08T11:07:21.266Z,44.75
2017-06-08T11:08:17.545Z,44.31
2017-06-08T11:09:13.790Z,44.25
2017-06-08T11:10:10.035Z,44.16
2017-06-08T11:11:06.299Z,44.33
2017-06-08T11:12:02.539Z,44.55
2017-06-08T11:12:58.784Z,45.11
2017-06-08T11:13:55.058Z,45.40
2017-06-08T11:14:51.294Z,45.53
2017-06-08T11:15:47.540Z,45.46
2017-06-08T11:16:43.791Z,45.47
2017-06-08T11:17:40.050Z,45.61
2017-06-08T11:18:36.305Z,45.48
2017-06-08T11:19:32.570Z,45.15
2017-06-08T11:20:28.830Z,44.79
2017-06-08T11:21:25.087Z,44.76
2017-06-08T11:22:21.367Z,44.94
2017-06-08T11:23:17.627Z,44.71
2017-06-08T11:24:13.874Z,44.60
2017-06-08T11:25:10.207Z,44.57
2017-06-08T11:26:06.442Z,45.14
2017-06-08T11:27:02.699Z,45.14
2017-06-08T11:27:58.946Z,45.19
2017-06-08T11:28:55.198Z,45.37
2017-06-08T11:29:51.484Z,45.60
2017-06-08T11:30:47.785Z,45.58
2017-06-08T11:31:44.037Z,44.55
2017-06-08T11:32:40.294Z,43.81
2017-06-08T11:33:36.541Z,44.00
2017-06-08T11:34:32.792Z,44.16
2017-06-08T11:35:29.055Z,43.95
2017-06-08T11:36:25.296Z,43.73
2017-06-08T11:37:21.534Z,43.58
2017-06-08T11:38:17.783Z,43.58
2017-06-08T11:39:14.050Z,43.37
2017-06-08T11:40:10.287Z,43.37
2017-06-08T11:41:06.544Z,43.44
2017-06-08T11:42:02.793Z,43.54
2017-06-08T11:42:59.039Z,43.60
2017-06-08T11:43:55.358Z,43.47
2017-06-08T11:44:51.619Z,43.29
2017-06-08T11:45:47.850Z,43.34
2017-06-08T11:46:44.103Z,43.64
2017-06-08T11:47:40.334Z,44.09
2017-06-08T11:48:36.591Z,44.32
2017-06-08T11:49:32.868Z,44.35
2017-06-08T11:50:29.118Z,44.42
2017-06-08T11:51:25.380Z,44.20
2017-06-08T11:52:21.675Z,43.89
2017-06-08T11:53:17.935Z,43.80
2017-06-08T11:54:14.199Z,44.10
2017-06-08T11:55:10.438Z,44.09
2017-06-08T11:56:06.683Z,44.14
2017-06-08T11:57:02.935Z,44.28
2017-06-08T11:57:59.186Z,44.17
2017-06-08T11:58:55.418Z,43.87
2017-06-08T11:59:51.667Z,43.63
2017-06-08T12:00:47.936Z,43.29
2017-06-08T12:01:44.199Z,43.19
2017-06-08T12:02:40.442Z,43.48
2017-06-08T12:03:36.707Z,43.48
2017-06-08T12:04:32.970Z,43.32
2017-06-08T12:05:29.198Z,43.10
2017-06-08T12:06:25.438Z,43.02
2017-06-08T12:07:21.746Z,43.09
2017-06-08T12:08:18.004Z,43.31
2017-06-08T12:09:14.263Z,43.41
2017-06-08T12:10:10.512Z,43.78
2017-06-08T12:11:06.742Z,44.10
2017-06-08T12:12:02.987Z,44.56
2017-06-08T12:12:59.227Z,44.68
2017-06-08T12:13:55.495Z,44.35
2017-06-08T12:14:51.843Z,44.27
2017-06-08T12:15:48.079Z,44.06
2017-06-08T12:16:44.314Z,43.81
2017-06-08T12:17:40.564Z,43.83
2017-06-08T12:18:36.799Z,44.05
2017-06-08T12:19:33.050Z,44.09
2017-06-08T12:20:29.295Z,43.86
2017-06-08T12:21:28.547Z,43.58
2017-06-08T12:22:24.841Z,43.53
2017-06-08T12:23:25.825Z,43.59
2017-06-08T12:24:22.111Z,43.82
2017-06-08T12:25:18.436Z,44.17
2017-06-08T12:26:14.743Z,44.31
2017-06-08T12:27:11.004Z,44.21
2017-06-08T12:28:10.910Z,43.93
2017-06-08T12:29:11.452Z,43.85
2017-06-08T12:30:10.351Z,43.78
2017-06-08T12:31:06.615Z,43.69
2017-06-08T12:32:02.851Z,44.14
2017-06-08T12:32:59.090Z,44.21
2017-06-08T12:33:55.327Z,44.26
2017-06-08T12:34:51.587Z,44.19
2017-06-08T12:35:47.828Z,44.19
2017-06-08T12:36:44.082Z,43.79
2017-06-08T12:37:40.322Z,43.27
2017-06-08T12:38:36.561Z,43.55
2017-06-08T12:39:32.790Z,43.69
2017-06-08T12:40:29.032Z,43.93
2017-06-08T12:41:25.262Z,43.70
2017-06-08T12:42:21.516Z,44.02
2017-06-08T12:43:17.743Z,43.86
2017-06-08T12:44:13.978Z,43.34
2017-06-08T12:45:10.222Z,43.05
2017-06-08T12:46:06.447Z,42.83
2017-06-08T12:47:02.691Z,42.66
2017-06-08T12:47:58.950Z,42.45
2017-06-08T12:48:55.180Z,41.95
2017-06-08T12:49:51.419Z,41.91
2017-06-08T12:50:47.662Z,41.75
2017-06-08T12:51:43.899Z,41.49
2017-06-08T12:52:40.147Z,41.21
2017-06-08T12:53:36.418Z,41.34
2017-06-08T12:54:32.678Z,41.26
2017-06-08T12:55:28.970Z,41.61
2017-06-08T12:56:25.220Z,42.14
2017-06-08T12:57:21.468Z,42.31
2017-06-08T12:58:17.724Z,42.30
2017-06-08T12:59:13.969Z,42.15
2017-06-08T13:00:10.208Z,42.24
2017-06-08T13:01:06.496Z,42.31
2017-06-08T13:02:02.767Z,42.18
2017-06-08T13:02:59.006Z,42.08
2017-06-08T13:03:55.259Z,42.24
2017-06-08T13:04:51.499Z,42.51
2017-06-08T13:05:47.740Z,42.64
2017-06-08T13:06:43.988Z,43.04
2017-06-08T13:07:40.252Z,43.62
2017-06-08T13:08:36.464Z,43.88
2017-06-08T13:09:32.738Z,44.00
2017-06-08T13:10:29.015Z,44.23
2017-06-08T13:11:25.263Z,44.30
2017-06-08T13:12:21.514Z,44.31
2017-06-08T13:13:17.767Z,43.86
2017-06-08T13:14:14.039Z,43.48
2017-06-08T13:15:10.292Z,42.49
2017-06-08T13:16:06.551Z,42.43
2017-06-08T13:17:02.798Z,42.18
2017-06-08T13:17:59.031Z,41.89
2017-06-08T13:18:55.262Z,41.65
2017-06-08T13:19:51.492Z,41.90
2017-06-08T13:20:47.751Z,41.88
2017-06-08T13:21:43.994Z,41.79
2017-06-08T13:22:40.239Z,41.79
2017-06-08T13:23:36.483Z,42.16
2017-06-08T13:24:32.723Z,42.02
2017-06-08T13:25:28.966Z,41.67
2017-06-08T13:26:25.224Z,41.63
2017-06-08T13:27:22.243Z,42.05
2017-06-08T13:28:18.639Z,41.82
2017-06-08T13:29:14.904Z,41.56
2017-06-08T13:30:11.135Z,41.09
2017-06-08T13:31:07.505Z,40.76
2017-06-08T13:32:04.436Z,40.63
2017-06-08T13:33:02.110Z,40.26
2017-06-08T13:33:59.203Z,39.98
2017-06-08T13:34:55.437Z,39.32
2017-06-08T13:35:51.682Z,38.52
2017-06-08T13:36:47.934Z,37.82
2017-06-08T13:37:44.817Z,37.86
2017-06-08T13:38:42.827Z,37.61
2017-06-08T13:39:40.046Z,37.06
2017-06-08T13:40:36.287Z,36.59
2017-06-08T13:41:32.563Z,36.53
2017-06-08T13:42:28.834Z,36.47
2017-06-08T13:43:25.095Z,36.90
2017-06-08T13:44:21.326Z,37.01
2017-06-08T13:45:17.558Z,36.78
2017-06-08T13:46:13.774Z,36.48
2017-06-08T13:47:10.354Z,36.61
2017-06-08T13:48:06.955Z,36.64
2017-06-08T13:49:03.199Z,36.55
2017-06-08T13:49:59.547Z,36.56
2017-06-08T13:50:55.875Z,36.32
2017-06-08T13:51:52.306Z,36.20
2017-06-08T13:52:48.572Z,35.88
2017-06-08T13:53:44.812Z,35.69
2017-06-08T13:54:41.061Z,35.86
2017-06-08T13:55:37.448Z,35.76
2017-06-08T13:56:33.990Z,35.94
2017-06-08T13:57:30.222Z,35.74
2017-06-08T13:58:26.498Z,35.58
2017-06-08T13:59:22.758Z,35.64
2017-06-08T14:00:18.995Z,35.65
2017-06-08T14:01:15.333Z,35.22
2017-06-08T14:02:11.579Z,35.54
2017-06-08T14:03:07.854Z,35.71
2017-06-08T14:04:04.091Z,35.96
2017-06-08T14:05:00.322Z,35.80
2017-06-08T14:05:56.563Z,35.35
2017-06-08T14:06:53.379Z,35.03
2017-06-08T14:07:49.623Z,35.23
2017-06-08T14:08:45.951Z,35.13
2017-06-08T14:09:42.191Z,35.23
2017-06-08T14:10:38.437Z,35.12
2017-06-08T14:11:34.688Z,34.71
2017-06-08T14:12:30.912Z,34.92
2017-06-08T14:13:27.158Z,35.24
2017-06-08T14:14:23.518Z,35.18
2017-06-08T14:15:19.784Z,34.88
2017-06-08T14:16:16.351Z,34.68
2017-06-08T14:17:12.618Z,34.92
2017-06-08T14:18:08.858Z,34.86
2017-06-08T14:19:05.111Z,34.69
2017-06-08T14:20:01.375Z,34.91
2017-06-08T14:20:57.634Z,35.45
2017-06-08T14:21:53.882Z,35.48
2017-06-08T14:22:50.127Z,35.45
2017-06-08T14:23:46.367Z,35.33
2017-06-08T14:24:42.623Z,35.18
2017-06-08T14:25:38.876Z,35.26
2017-06-08T14:26:35.130Z,35.19
2017-06-08T14:27:31.362Z,35.24
2017-06-08T14:28:27.633Z,35.23
2017-06-08T14:29:24.040Z,34.98
2017-06-08T14:30:20.287Z,34.83
2017-06-08T14:31:16.526Z,34.67
2017-06-08T14:32:12.910Z,34.63
2017-06-08T14:33:09.150Z,35.03
2017-06-08T14:34:05.390Z,35.17
2017-06-08T14:35:01.646Z,34.94
2017-06-08T14:35:57.886Z,34.57
2017-06-08T14:36:54.323Z,34.82
2017-06-08T14:37:50.786Z,35.04
2017-06-08T14:38:47.027Z,35.40
2017-06-08T14:39:43.264Z,35.28
2017-06-08T14:40:39.543Z,35.25
2017-06-08T14:41:35.788Z,35.57
2017-06-08T14:42:32.030Z,35.65
2017-06-08T14:43:28.263Z,36.02
2017-06-08T14:44:24.510Z,36.36
2017-06-08T14:45:20.772Z,36.72
2017-06-08T14:46:17.055Z,36.86
2017-06-08T14:47:13.331Z,36.98
2017-06-08T14:48:09.600Z,36.63
2017-06-08T14:49:05.852Z,36.66
2017-06-08T14:50:02.091Z,36.73
2017-06-08T14:50:58.347Z,36.82
2017-06-08T14:51:54.602Z,36.61
2017-06-08T14:52:50.839Z,36.64
2017-06-08T14:53:47.087Z,36.67
2017-06-08T14:54:43.322Z,36.47
2017-06-08T14:55:39.566Z,36.23
2017-06-08T14:56:35.807Z,36.16
2017-06-08T14:57:32.062Z,35.98
2017-06-08T14:58:28.294Z,35.55
2017-06-08T14:59:24.555Z,35.29
2017-06-08T15:00:20.798Z,35.30
2017-06-08T15:01:17.050Z,35.02
2017-06-08T15:02:13.310Z,34.81
2017-06-08T15:03:09.571Z,34.94
2017-06-08T15:04:05.806Z,35.29
2017-06-08T15:05:02.066Z,35.32
2017-06-08T15:05:58.327Z,35.46
2017-06-08T15:06:54.579Z,35.37
2017-06-08T15:07:50.826Z,35.37
2017-06-08T15:08:47.246Z,35.81
2017-06-08T15:09:43.567Z,35.88
2017-06-08T15:10:39.811Z,36.08
2017-06-08T15:11:36.058Z,36.43
2017-06-08T15:12:32.318Z,36.49
2017-06-08T15:13:28.645Z,36.07
2017-06-08T15:14:24.900Z,35.97
2017-06-08T15:15:21.311Z,36.02
2017-06-08T15:16:17.559Z,36.08
2017-06-08T15:17:14.078Z,36.28
2017-06-08T15:18:10.339Z,36.23
2017-06-08T15:19:06.576Z,36.70
2017-06-08T15:20:02.814Z,37.10
2017-06-08T15:20:59.051Z,37.18
2017-06-08T15:21:55.298Z,37.08
2017-06-08T15:22:51.546Z,37.41
2017-06-08T15:23:47.826Z,37.86
2017-06-08T15:24:44.068Z,37.77
2017-06-08T15:25:40.310Z,38.13
2017-06-08T15:26:36.555Z,38.43
2017-06-08T15:27:32.802Z,38.30
2017-06-08T15:28:29.053Z,38.37
2017-06-08T15:29:25.319Z,38.49
2017-06-08T15:30:21.567Z,38.53
2017-06-08T15:31:17.811Z,38.82
2017-06-08T15:32:14.063Z,38.85
2017-06-08T15:33:10.306Z,38.74
2017-06-08T15:34:06.580Z,38.66
2017-06-08T15:35:02.827Z,38.59
2017-06-08T15:35:59.070Z,38.68
2017-06-08T15:36:55.432Z,38.66
2017-06-08T15:37:51.676Z,38.57
2017-06-08T15:38:47.927Z,38.36
2017-06-08T15:39:44.200Z,38.17
2017-06-08T15:40:40.471Z,38.32
2017-06-08T15:41:36.886Z,38.20
2017-06-08T15:42:33.230Z,38.02
2017-06-08T15:43:29.510Z,37.90
2017-06-08T15:44:25.756Z,37.80
2017-06-08T15:45:22.284Z,37.77
2017-06-08T15:46:18.551Z,37.64
2017-06-08T15:47:14.953Z,37.74
2017-06-08T15:48:11.442Z,37.90
2017-06-08T15:49:07.685Z,37.82
2017-06-08T15:50:03.951Z,37.22
2017-06-08T15:51:00.210Z,37.20
2017-06-08T15:51:56.455Z,37.12
2017-06-08T15:52:52.721Z,37.42
2017-06-08T15:53:48.926Z,37.79
2017-06-08T15:54:45.166Z,37.96
2017-06-08T15:55:41.410Z,38.12
2017-06-08T15:56:37.654Z,37.75
2017-06-08T15:57:33.903Z,37.33
2017-06-08T15:58:30.139Z,37.30
2017-06-08T15:59:26.383Z,36.76
2017-06-08T16:00:22.636Z,36.41
2017-06-08T16:01:18.883Z,36.32
2017-06-08T16:02:15.152Z,36.37
2017-06-08T16:03:11.391Z,36.54
2017-06-08T16:04:07.680Z,36.56
2017-06-08T16:05:03.951Z,36.60
2017-06-08T16:06:00.242Z,36.55
2017-06-08T16:06:56.490Z,36.58
2017-06-08T16:07:52.827Z,36.69
2017-06-08T16:08:49.064Z,36.72
2017-06-08T16:09:45.306Z,36.68
2017-06-08T16:10:41.562Z,36.76
2017-06-08T16:11:37.826Z,36.80
2017-06-08T16:12:34.075Z,37.12
2017-06-08T16:13:30.331Z,37.41
2017-06-08T16:14:26.583Z,37.82
2017-06-08T16:15:22.823Z,38.28
2017-06-08T16:16:19.070Z,38.42
2017-06-08T16:17:15.310Z,38.52
2017-06-08T16:18:11.551Z,38.72
2017-06-08T16:19:07.783Z,38.75
2017-06-08T16:20:04.052Z,38.60
2017-06-08T16:21:00.306Z,38.56
2017-06-08T16:21:56.542Z,38.41
2017-06-08T16:22:52.782Z,38.31
2017-06-08T16:23:49.022Z,38.38
2017-06-08T16:24:45.263Z,38.60
2017-06-08T16:25:41.503Z,38.87
2017-06-08T16:26:37.770Z,39.21
2017-06-08T16:27:34.015Z,39.56
2017-06-08T16:28:30.251Z,39.89
2017-06-08T16:29:26.499Z,40.43
2017-06-08T16:30:22.742Z,39.85
2017-06-08T16:31:18.986Z,39.59
2017-06-08T16:32:15.243Z,39.24
2017-06-08T16:33:11.487Z,39.43
2017-06-08T16:34:07.723Z,39.51
2017-06-08T16:35:03.959Z,39.50
2017-06-08T16:36:00.207Z,39.66
2017-06-08T16:36:56.464Z,39.76
2017-06-08T16:37:52.715Z,39.61
2017-06-08T16:38:48.963Z,39.49
2017-06-08T16:39:45.210Z,39.47
2017-06-08T16:40:41.450Z,39.66
2017-06-08T16:41:37.708Z,39.85
2017-06-08T16:42:33.946Z,39.88
2017-06-08T16:43:30.208Z,39.66
2017-06-08T16:44:26.483Z,39.78
2017-06-08T16:45:22.728Z,40.26
2017-06-08T16:46:19.366Z,40.41
2017-06-08T16:47:15.970Z,40.37